createdAt,value
2022-12-15T00:01:47.434Z,13.23
2022-12-15T00:04:32.980Z,12.40
2022-12-15T00:07:18.505Z,12.02
2022-12-15T00:10:03.887Z,9.75
2022-12-15T00:12:49.163Z,7.53
2022-12-15T00:15:35.300Z,7.85
2022-12-15T00:18:26.767Z,6.57
2022-12-15T00:21:16.785Z,7.15
2022-12-15T00:24:02.173Z,6.80
2022-12-15T00:26:47.481Z,7.28
2022-12-15T00:29:32.759Z,6.35
2022-12-15T00:32:18.051Z,7.10
2022-12-15T00:35:03.577Z,7.60
2022-12-15T00:37:49.251Z,7.35
2022-12-15T00:40:16.088Z,7.10
2022-12-15T00:42:42.893Z,5.90
2022-12-15T00:45:10.295Z,6.57
2022-12-15T00:47:37.324Z,7.03
2022-12-15T00:50:23.294Z,7.72
2022-12-15T00:53:10.331Z,7.63
2022-12-15T00:55:55.861Z,7.90
2022-12-15T00:58:41.454Z,7.65
2022-12-15T01:01:28.620Z,6.78
2022-12-15T01:04:14.525Z,6.88
2022-12-15T01:07:00.434Z,7.57
2022-12-15T01:09:45.753Z,7.32
2022-12-15T01:12:30.942Z,9.80
2022-12-15T01:15:16.311Z,10.82
2022-12-15T01:18:01.608Z,10.50
2022-12-15T01:20:32.602Z,9.82
2022-12-15T01:22:59.496Z,8.55
2022-12-15T01:25:27.491Z,9.35
2022-12-15T01:27:54.513Z,11.43
2022-12-15T01:30:31.664Z,10.43
2022-12-15T01:32:58.384Z,12.40
2022-12-15T01:35:27.656Z,11.05
2022-12-15T01:37:54.416Z,10.60
2022-12-15T01:40:40.029Z,11.00
2022-12-15T01:43:13.767Z,10.43
2022-12-15T01:45:51.913Z,9.18
2022-12-15T01:48:50.869Z,8.55
2022-12-15T01:51:32.702Z,8.38
2022-12-15T01:54:14.822Z,9.27
2022-12-15T01:56:45.836Z,9.48
2022-12-15T01:59:17.016Z,9.20
2022-12-15T02:01:43.889Z,8.93
2022-12-15T02:04:19.540Z,13.85
2022-12-15T02:06:46.360Z,12.32
2022-12-15T02:09:13.501Z,13.77
2022-12-15T02:11:43.472Z,13.18
2022-12-15T02:14:12.040Z,13.20
2022-12-15T02:16:58.122Z,12.85
2022-12-15T02:19:53.482Z,10.25
2022-12-15T02:22:52.395Z,9.90
2022-12-15T02:25:57.141Z,9.95
2022-12-15T02:28:48.517Z,8.88
2022-12-15T02:31:35.667Z,8.32
2022-12-15T02:34:38.577Z,11.30
2022-12-15T02:37:10.278Z,16.17
2022-12-15T02:39:37.126Z,18.58
2022-12-15T02:42:04.030Z,18.67
2022-12-15T02:44:43.553Z,19.70
2022-12-15T02:47:18.770Z,15.77
2022-12-15T02:50:13.355Z,14.45
2022-12-15T02:52:58.625Z,13.07
2022-12-15T02:56:10.767Z,13.25
2022-12-15T02:59:02.907Z,10.95
2022-12-15T03:01:40.055Z,9.73
2022-12-15T03:04:12.029Z,9.38
2022-12-15T03:06:39.518Z,8.68
2022-12-15T03:09:06.183Z,8.52
2022-12-15T03:11:33.289Z,8.05
2022-12-15T03:14:00.153Z,9.13
2022-12-15T03:16:26.974Z,8.25
2022-12-15T03:18:53.945Z,8.57
2022-12-15T03:21:20.720Z,8.90
2022-12-15T03:23:47.441Z,10.90
2022-12-15T03:26:14.201Z,10.07
2022-12-15T03:28:40.971Z,8.82
2022-12-15T03:31:07.684Z,9.13
2022-12-15T03:33:40.990Z,9.20
2022-12-15T03:36:08.173Z,9.35
2022-12-15T03:38:34.933Z,10.65
2022-12-15T03:41:01.754Z,8.88
2022-12-15T03:43:28.939Z,9.05
2022-12-15T03:45:55.969Z,8.10
2022-12-15T03:48:22.739Z,8.60
2022-12-15T03:50:50.204Z,7.50
2022-12-15T03:53:17.357Z,7.65
2022-12-15T03:55:44.118Z,7.90
2022-12-15T03:58:10.912Z,9.80
2022-12-15T04:00:39.290Z,9.98
2022-12-15T04:03:06.270Z,9.80
2022-12-15T04:05:34.745Z,9.30
2022-12-15T04:08:02.013Z,9.75
2022-12-15T04:10:34.516Z,8.68
2022-12-15T04:13:07.058Z,8.38
2022-12-15T04:15:36.753Z,9.25
2022-12-15T04:18:05.667Z,7.75
2022-12-15T04:20:33.161Z,8.93
2022-12-15T04:23:00.583Z,10.75
2022-12-15T04:25:52.556Z,9.75
2022-12-15T04:28:38.283Z,10.13
2022-12-15T04:31:29.226Z,9.77
2022-12-15T04:34:19.192Z,8.93
2022-12-15T04:37:08.034Z,8.65
2022-12-15T04:39:55.906Z,8.48
2022-12-15T04:42:41.354Z,9.15
2022-12-15T04:45:28.073Z,9.25
2022-12-15T04:48:20.994Z,8.98
2022-12-15T04:51:06.494Z,9.25
2022-12-15T04:53:52.116Z,10.48
2022-12-15T04:56:37.512Z,11.25
2022-12-15T04:59:23.273Z,10.40
2022-12-15T05:02:09.157Z,10.65
2022-12-15T05:04:54.618Z,9.88
2022-12-15T05:07:46.587Z,9.30
2022-12-15T05:10:32.121Z,9.15
2022-12-15T05:13:32.453Z,9.93
2022-12-15T05:16:17.961Z,12.43
2022-12-15T05:19:03.293Z,10.93
2022-12-15T05:21:48.620Z,15.60
2022-12-15T05:24:34.218Z,15.25
2022-12-15T05:27:19.652Z,14.43
2022-12-15T05:30:04.978Z,14.25
2022-12-15T05:32:33.238Z,13.32
2022-12-15T05:35:01.307Z,14.48
2022-12-15T05:37:28.090Z,16.92
2022-12-15T05:39:54.897Z,14.55
2022-12-15T05:42:21.814Z,15.05
2022-12-15T05:44:48.888Z,13.25
2022-12-15T05:47:16.644Z,11.25
2022-12-15T05:49:43.562Z,12.10
2022-12-15T05:52:10.262Z,11.35
2022-12-15T05:54:37.109Z,11.63
2022-12-15T05:57:10.575Z,11.15
2022-12-15T05:59:41.199Z,11.57
2022-12-15T06:02:08.117Z,11.65
2022-12-15T06:04:34.930Z,16.40
2022-12-15T06:07:01.868Z,19.52
2022-12-15T06:09:31.426Z,17.42
2022-12-15T06:11:58.289Z,15.32
2022-12-15T06:14:25.029Z,18.23
2022-12-15T06:16:51.918Z,15.60
2022-12-15T06:19:19.456Z,14.10
2022-12-15T06:21:46.233Z,14.02
2022-12-15T06:24:19.315Z,13.15
2022-12-15T06:26:52.779Z,13.95
2022-12-15T06:29:19.563Z,12.48
2022-12-15T06:31:46.843Z,14.45
2022-12-15T06:34:16.434Z,12.95
2022-12-15T06:36:44.240Z,13.02
2022-12-15T06:39:15.842Z,12.40
2022-12-15T06:41:43.381Z,12.32
2022-12-15T06:44:14.255Z,12.07
2022-12-15T06:46:41.456Z,11.07
2022-12-15T06:49:09.089Z,11.68
2022-12-15T06:51:37.802Z,11.30
2022-12-15T06:54:04.792Z,12.63
2022-12-15T06:56:38.782Z,14.00
2022-12-15T06:59:07.394Z,13.88
2022-12-15T07:01:34.553Z,11.27
2022-12-15T07:04:06.198Z,12.95
2022-12-15T07:06:37.844Z,13.88
2022-12-15T07:09:07.900Z,13.00
2022-12-15T07:11:35.191Z,11.93
2022-12-15T07:14:02.076Z,11.10
2022-12-15T07:16:28.836Z,12.40
2022-12-15T07:18:55.721Z,12.35
2022-12-15T07:21:22.466Z,10.85
2022-12-15T07:23:57.483Z,11.13
2022-12-15T07:26:25.008Z,14.77
2022-12-15T07:29:05.172Z,13.73
2022-12-15T07:31:39.012Z,14.55
2022-12-15T07:34:07.172Z,15.80
2022-12-15T07:36:34.856Z,16.15
2022-12-15T07:39:04.876Z,15.52
2022-12-15T07:41:38.253Z,13.63
2022-12-15T07:44:06.201Z,12.80
2022-12-15T07:46:33.056Z,12.55
2022-12-15T07:49:00.078Z,11.75
2022-12-15T07:51:27.675Z,10.73
2022-12-15T07:53:54.853Z,10.98
2022-12-15T07:56:21.736Z,9.95
2022-12-15T07:58:48.716Z,11.00
2022-12-15T08:01:16.270Z,11.57
2022-12-15T08:03:43.561Z,11.10
2022-12-15T08:06:20.345Z,12.60
2022-12-15T08:08:53.930Z,10.40
2022-12-15T08:11:22.668Z,9.63
2022-12-15T08:14:02.538Z,8.85
2022-12-15T08:16:30.801Z,9.88
2022-12-15T08:18:58.800Z,9.02
2022-12-15T08:21:25.700Z,10.30
2022-12-15T08:23:52.634Z,12.15
2022-12-15T08:26:22.605Z,12.13
2022-12-15T08:28:53.983Z,10.68
2022-12-15T08:31:38.304Z,12.07
2022-12-15T08:34:12.994Z,13.73
2022-12-15T08:36:40.046Z,12.27
2022-12-15T08:39:06.795Z,12.77
2022-12-15T08:41:33.664Z,11.70
2022-12-15T08:44:01.479Z,12.30
2022-12-15T08:46:30.847Z,15.05
2022-12-15T08:48:58.347Z,15.02
2022-12-15T08:51:28.093Z,11.85
2022-12-15T08:53:56.045Z,14.25
2022-12-15T08:56:24.099Z,18.15
2022-12-15T08:58:55.787Z,16.83
2022-12-15T09:01:24.879Z,19.80
2022-12-15T09:03:53.859Z,19.42
2022-12-15T09:06:30.742Z,19.42
2022-12-15T09:08:59.817Z,16.40
2022-12-15T09:11:28.539Z,14.13
2022-12-15T09:13:56.067Z,13.73
2022-12-15T09:16:23.526Z,12.68
2022-12-15T09:18:52.785Z,12.13
2022-12-15T09:21:23.016Z,13.63
2022-12-15T09:23:51.972Z,13.20
2022-12-15T09:26:21.109Z,15.02
2022-12-15T09:28:50.140Z,14.35
2022-12-15T09:31:21.706Z,13.48
2022-12-15T09:34:04.458Z,13.88
2022-12-15T09:36:32.888Z,11.23
2022-12-15T09:39:01.929Z,12.82
2022-12-15T09:41:32.436Z,16.05
2022-12-15T09:43:59.260Z,15.25
2022-12-15T09:46:44.828Z,14.48
2022-12-15T09:49:50.666Z,11.48
2022-12-15T09:52:22.882Z,11.63
2022-12-15T09:54:49.906Z,12.27
2022-12-15T09:57:29.966Z,13.43
2022-12-15T10:00:04.924Z,13.85
2022-12-15T10:03:02.314Z,12.85
2022-12-15T10:06:21.472Z,15.63
2022-12-15T10:08:40.882Z,15.85
2022-12-15T10:11:17.308Z,15.05
2022-12-15T10:13:50.717Z,16.92
2022-12-15T10:16:29.488Z,15.82
2022-12-15T10:19:13.411Z,14.55
2022-12-15T10:21:40.743Z,12.48
2022-12-15T10:24:37.501Z,15.55
2022-12-15T10:27:08.257Z,13.82
2022-12-15T10:29:45.430Z,12.52
2022-12-15T10:32:27.034Z,12.73
2022-12-15T10:34:53.869Z,13.55
2022-12-15T10:37:21.726Z,15.25
2022-12-15T10:39:50.466Z,13.75
2022-12-15T10:42:23.290Z,12.38
2022-12-15T10:45:01.544Z,13.88
2022-12-15T10:47:36.595Z,12.82
2022-12-15T10:50:25.139Z,12.10
2022-12-15T10:52:52.224Z,12.30
2022-12-15T10:55:42.119Z,16.58
2022-12-15T10:58:21.482Z,15.13
2022-12-15T11:01:04.681Z,14.32
2022-12-15T11:03:39.791Z,13.00
2022-12-15T11:06:22.134Z,14.48
2022-12-15T11:08:53.070Z,16.33
2022-12-15T11:11:52.087Z,14.45
2022-12-15T11:14:24.176Z,12.52
2022-12-15T11:16:56.488Z,11.82
2022-12-15T11:19:36.154Z,12.27
2022-12-15T11:22:20.290Z,13.20
2022-12-15T11:24:57.052Z,14.13
2022-12-15T11:27:33.717Z,11.63
2022-12-15T11:30:18.942Z,13.25
2022-12-15T11:33:03.976Z,13.70
2022-12-15T11:39:04.634Z,10.43
2022-12-15T11:41:56.415Z,10.57
2022-12-15T11:44:59.704Z,12.55
2022-12-15T11:47:33.365Z,11.85
2022-12-15T11:50:37.236Z,13.43
2022-12-15T11:53:29.407Z,15.07
2022-12-15T11:56:21.500Z,19.50
2022-12-15T11:59:01.454Z,19.73
2022-12-15T12:01:28.845Z,17.30
2022-12-15T12:04:28.619Z,14.50
2022-12-15T12:07:09.348Z,12.50
2022-12-15T12:10:00.904Z,12.82
2022-12-15T12:12:58.766Z,11.85
2022-12-15T12:15:37.797Z,15.18
2022-12-15T12:18:23.063Z,14.20
2022-12-15T12:20:58.704Z,14.23
2022-12-15T12:23:31.393Z,12.05
2022-12-15T12:26:13.301Z,10.25
2022-12-15T12:28:41.925Z,9.95
2022-12-15T12:31:36.713Z,10.20
2022-12-15T12:34:22.812Z,10.57
2022-12-15T12:36:50.643Z,9.70
2022-12-15T12:39:21.531Z,9.43
2022-12-15T12:42:26.506Z,10.77
2022-12-15T12:44:53.498Z,9.35
2022-12-15T12:47:44.665Z,9.77
2022-12-15T12:50:25.240Z,11.63
2022-12-15T12:53:02.082Z,11.15
2022-12-15T12:55:37.984Z,10.60
2022-12-15T12:58:32.526Z,11.65
2022-12-15T13:01:11.261Z,9.67
2022-12-15T13:03:43.405Z,18.05
2022-12-15T13:06:42.274Z,17.08
2022-12-15T13:09:39.386Z,17.83
2022-12-15T13:12:53.203Z,13.88
2022-12-15T13:15:45.706Z,11.57
2022-12-15T13:18:21.106Z,11.27
2022-12-15T13:21:03.756Z,9.93
2022-12-15T13:23:41.503Z,11.98
2022-12-15T13:26:08.391Z,11.75
2022-12-15T13:28:39.062Z,11.05
2022-12-15T13:31:21.144Z,11.00
2022-12-15T13:33:51.276Z,13.45
2022-12-15T13:36:40.041Z,12.18
2022-12-15T13:39:13.002Z,10.00
2022-12-15T13:42:15.694Z,10.27
2022-12-15T13:44:44.343Z,9.15
2022-12-15T13:47:27.979Z,9.88
2022-12-15T13:50:28.223Z,9.98
2022-12-15T13:53:18.446Z,10.40
2022-12-15T13:56:05.577Z,10.63
2022-12-15T13:58:40.874Z,12.60
2022-12-15T14:01:31.691Z,12.57
2022-12-15T14:04:16.231Z,11.88
2022-12-15T14:06:50.842Z,13.05
2022-12-15T14:09:47.170Z,13.27
2022-12-15T14:12:15.976Z,12.15
2022-12-15T14:14:48.937Z,11.70
2022-12-15T14:17:18.009Z,11.18
2022-12-15T14:19:51.046Z,10.90
2022-12-15T14:22:27.530Z,12.20
2022-12-15T14:25:21.841Z,11.95
2022-12-15T14:27:50.943Z,9.98
2022-12-15T14:30:37.314Z,12.73
2022-12-15T14:33:11.661Z,14.27
2022-12-15T14:35:50.138Z,13.57
2022-12-15T14:38:21.705Z,12.45
2022-12-15T14:40:50.830Z,13.80
2022-12-15T14:43:24.436Z,11.80
2022-12-15T14:45:55.471Z,10.93
2022-12-15T14:48:42.950Z,9.40
2022-12-15T14:51:17.405Z,9.98
2022-12-15T14:53:53.179Z,9.07
2022-12-15T14:56:25.782Z,9.68
2022-12-15T14:59:20.137Z,10.57
2022-12-15T15:02:13.886Z,9.30
2022-12-15T15:04:41.577Z,8.50
2022-12-15T15:07:17.724Z,8.68
2022-12-15T15:09:46.411Z,8.27
2022-12-15T15:12:22.416Z,9.43
2022-12-15T15:15:00.320Z,7.82
2022-12-15T15:17:36.977Z,8.32
2022-12-15T15:20:15.396Z,8.45
2022-12-15T15:22:45.347Z,8.70
2022-12-15T15:25:30.819Z,9.30
2022-12-15T15:28:11.540Z,8.13
2022-12-15T15:30:57.443Z,8.15
2022-12-15T15:33:25.331Z,9.85
2022-12-15T15:36:02.911Z,10.18
2022-12-15T15:38:35.964Z,9.55
2022-12-15T15:41:18.968Z,8.48
2022-12-15T15:43:46.688Z,10.32
2022-12-15T15:46:20.785Z,10.68
2022-12-15T15:49:05.938Z,9.60
2022-12-15T15:51:37.695Z,12.07
2022-12-15T15:54:08.213Z,10.57
2022-12-15T15:56:35.046Z,12.40
2022-12-15T15:59:13.672Z,10.73
2022-12-15T16:01:46.509Z,9.10
2022-12-15T16:04:13.473Z,9.90
2022-12-15T16:06:46.689Z,11.13
2022-12-15T16:09:15.625Z,11.57
2022-12-15T16:11:43.221Z,12.68
2022-12-15T16:14:18.450Z,11.80
2022-12-15T16:16:45.639Z,12.57
2022-12-15T16:19:12.442Z,10.93
2022-12-15T16:21:40.554Z,11.98
2022-12-15T16:24:15.611Z,11.77
2022-12-15T16:26:47.774Z,10.60
2022-12-15T16:29:16.568Z,10.63
2022-12-15T16:31:46.492Z,9.18
2022-12-15T16:34:16.702Z,9.70
2022-12-15T16:36:54.142Z,9.10
2022-12-15T16:39:30.803Z,9.90
2022-12-15T16:41:57.909Z,9.32
2022-12-15T16:44:29.519Z,13.65
2022-12-15T16:46:57.197Z,13.18
2022-12-15T16:49:24.361Z,13.02
2022-12-15T16:51:53.586Z,11.77
2022-12-15T16:54:28.903Z,11.10
2022-12-15T16:56:57.744Z,11.27
2022-12-15T16:59:33.617Z,12.35
2022-12-15T17:02:01.958Z,13.27
2022-12-15T17:04:29.242Z,12.48
2022-12-15T17:06:56.023Z,12.32
2022-12-15T17:09:25.473Z,11.75
2022-12-15T17:11:52.754Z,11.48
2022-12-15T17:14:19.482Z,12.65
2022-12-15T17:16:46.241Z,14.60
2022-12-15T17:19:19.210Z,14.43
2022-12-15T17:24:18.020Z,11.73
2022-12-15T17:26:45.069Z,11.20
2022-12-15T17:29:19.005Z,12.45
2022-12-15T17:31:46.073Z,13.10
2022-12-15T17:34:32.715Z,12.55
2022-12-15T17:37:02.281Z,12.50
2022-12-15T17:39:30.286Z,12.32
2022-12-15T17:42:00.428Z,11.15
2022-12-15T17:44:34.468Z,11.73
2022-12-15T17:47:05.403Z,10.13
2022-12-15T17:49:35.917Z,10.88
2022-12-15T17:52:24.075Z,11.00
2022-12-15T17:54:52.108Z,12.55
2022-12-15T17:57:18.938Z,13.98
2022-12-15T17:59:45.840Z,13.82
2022-12-15T18:02:14.237Z,13.02
2022-12-15T18:04:41.738Z,11.93
2022-12-15T18:07:20.826Z,10.60
2022-12-15T18:09:49.022Z,9.95
2022-12-15T18:12:22.362Z,11.48
2022-12-15T18:14:50.000Z,10.93
2022-12-15T18:17:16.948Z,10.52
2022-12-15T18:19:43.903Z,11.15
2022-12-15T18:22:22.808Z,10.18
2022-12-15T18:24:51.635Z,9.48
2022-12-15T18:27:26.532Z,10.27
2022-12-15T18:29:53.922Z,10.32
2022-12-15T18:32:25.531Z,11.15
2022-12-15T18:34:53.626Z,12.80
2022-12-15T18:37:22.891Z,11.75
2022-12-15T18:39:50.784Z,12.77
2022-12-15T18:42:20.327Z,14.65
2022-12-15T18:44:49.921Z,14.30
2022-12-15T18:47:22.338Z,12.98
2022-12-15T18:49:49.375Z,15.75
2022-12-15T18:52:26.504Z,14.10
2022-12-15T18:54:55.663Z,14.32
2022-12-15T18:57:35.805Z,14.02
2022-12-15T19:00:07.857Z,14.77
2022-12-15T19:02:34.711Z,13.13
2022-12-15T19:05:01.578Z,12.13
2022-12-15T19:07:28.390Z,13.00
2022-12-15T19:09:55.400Z,10.90
2022-12-15T19:12:22.284Z,9.68
2022-12-15T19:14:51.419Z,9.48
2022-12-15T19:17:41.773Z,9.70
2022-12-15T19:20:39.282Z,10.00
2022-12-15T19:23:07.053Z,11.90
2022-12-15T19:25:35.120Z,14.25
2022-12-15T19:28:02.229Z,13.95
2022-12-15T19:30:33.157Z,14.25
2022-12-15T19:33:01.728Z,12.43
2022-12-15T19:35:29.218Z,11.63
2022-12-15T19:37:58.006Z,10.60
2022-12-15T19:40:32.646Z,9.63
2022-12-15T19:45:30.172Z,7.88
2022-12-15T19:47:57.952Z,8.63
2022-12-15T19:50:36.604Z,8.60
2022-12-15T19:53:25.456Z,10.25
2022-12-15T19:55:55.428Z,8.20
2022-12-15T19:58:33.766Z,8.23
2022-12-15T20:01:04.430Z,8.18
2022-12-15T20:03:32.525Z,9.60
2022-12-15T20:06:01.942Z,9.98
2022-12-15T20:08:34.347Z,10.27
2022-12-15T20:11:01.316Z,10.07
2022-12-15T20:13:38.390Z,11.00
2022-12-15T20:16:05.348Z,9.65
2022-12-15T20:18:32.519Z,10.65
2022-12-15T20:20:59.703Z,10.52
2022-12-15T20:23:26.806Z,11.25
2022-12-15T20:25:56.421Z,11.07
2022-12-15T20:28:26.201Z,10.25
2022-12-15T20:30:53.664Z,9.70
2022-12-15T20:33:20.637Z,9.43
2022-12-15T20:35:48.955Z,8.38
2022-12-15T20:38:27.789Z,8.32
2022-12-15T20:40:55.245Z,9.35
2022-12-15T20:43:23.641Z,8.30
2022-12-15T20:46:00.240Z,9.68
2022-12-15T20:48:27.124Z,9.23
2022-12-15T20:50:53.926Z,9.52
2022-12-15T20:53:23.977Z,10.15
2022-12-15T20:55:52.812Z,8.77
2022-12-15T20:58:20.481Z,8.38
2022-12-15T21:00:48.703Z,8.80
2022-12-15T21:03:27.715Z,9.70
2022-12-15T21:05:56.366Z,12.00
2022-12-15T21:08:27.101Z,10.30
2022-12-15T21:10:55.903Z,9.90
2022-12-15T21:13:26.404Z,8.20
2022-12-15T21:15:53.950Z,7.13
2022-12-15T21:18:57.621Z,6.80
2022-12-15T21:21:20.774Z,5.68
2022-12-15T21:23:47.748Z,6.43
2022-12-15T21:26:29.560Z,7.28
2022-12-15T21:29:01.813Z,7.82
2022-12-15T21:31:28.647Z,8.90
2022-12-15T21:33:55.459Z,8.52
2022-12-15T21:36:22.414Z,7.90
2022-12-15T21:38:50.872Z,7.85
2022-12-15T21:41:22.100Z,8.25
2022-12-15T21:43:49.793Z,6.88
2022-12-15T21:46:27.546Z,5.90
2022-12-15T21:49:14.316Z,5.38
2022-12-15T21:51:57.926Z,4.97
2022-12-15T21:54:32.452Z,4.45
2022-12-15T21:59:29.666Z,3.60
2022-12-15T22:01:57.174Z,3.38
2022-12-15T22:04:30.330Z,2.95
2022-12-15T22:06:58.537Z,3.05
2022-12-15T22:09:25.469Z,3.30
2022-12-15T22:11:54.074Z,3.35
2022-12-15T22:14:32.995Z,3.03
2022-12-15T22:17:17.086Z,3.88
2022-12-15T22:19:43.953Z,3.73
2022-12-15T22:22:11.477Z,3.83
2022-12-15T22:24:38.500Z,4.20
2022-12-15T22:27:23.094Z,4.57
2022-12-15T22:29:50.350Z,4.43
2022-12-15T22:32:20.854Z,4.38
2022-12-15T22:34:48.527Z,4.55
2022-12-15T22:37:28.663Z,4.35
2022-12-15T22:39:55.405Z,3.95
2022-12-15T22:42:22.172Z,3.58
2022-12-15T22:44:49.005Z,3.90
2022-12-15T22:47:15.833Z,4.60
2022-12-15T22:49:42.943Z,4.68
2022-12-15T22:52:17.381Z,4.60
2022-12-15T22:57:25.925Z,4.28
2022-12-15T23:00:11.557Z,4.22
2022-12-15T23:02:41.660Z,3.80
2022-12-15T23:05:09.412Z,3.42
2022-12-15T23:07:36.292Z,3.70
2022-12-15T23:10:22.593Z,4.38
2022-12-15T23:12:54.291Z,4.70
2022-12-15T23:15:41.530Z,5.10
2022-12-15T23:18:08.598Z,5.68
2022-12-15T23:20:35.647Z,6.10
2022-12-15T23:23:09.758Z,5.20
2022-12-15T23:25:44.001Z,4.68
2022-12-15T23:28:10.773Z,3.75
2022-12-15T23:30:37.493Z,4.30
2022-12-15T23:33:04.421Z,4.30
2022-12-15T23:35:31.395Z,3.85
2022-12-15T23:37:58.766Z,3.42
2022-12-15T23:40:25.781Z,3.42
2022-12-15T23:42:53.608Z,2.90
2022-12-15T23:45:20.829Z,3.03
2022-12-15T23:47:47.690Z,2.92
2022-12-15T23:50:14.819Z,3.35
2022-12-15T23:52:41.742Z,3.70
2022-12-15T23:55:11.486Z,3.00
2022-12-15T23:57:39.326Z,3.50
